sensor_id;sensor_type;location;lat;lon;timestamp;temperature;humidity
21811;DHT22;11067;48.788;9.208;2023-03-14T00:01:28;10.40;99.90
21811;DHT22;11067;48.788;9.208;2023-03-14T00:03:54;10.40;99.90
21811;DHT22;11067;48.788;9.208;2023-03-14T00:06:20;10.40;99.90
21811;DHT22;11067;48.788;9.208;2023-03-14T00:08:46;10.40;99.90
21811;DHT22;11067;48.788;9.208;2023-03-14T00:11:17;10.40;99.90
21811;DHT22;11067;48.788;9.208;2023-03-14T00:13:42;10.40;99.90
21811;DHT22;11067;48.788;9.208;2023-03-14T00:16:12;10.40;99.90
21811;DHT22;11067;48.788;9.208;2023-03-14T00:18:39;10.40;99.90
21811;DHT22;11067;48.788;9.208;2023-03-14T00:21:06;10.40;99.90
21811;DHT22;11067;48.788;9.208;2023-03-14T00:23:33;10.40;99.90
21811;DHT22;11067;48.788;9.208;2023-03-14T00:26:04;10.40;99.90
21811;DHT22;11067;48.788;9.208;2023-03-14T00:28:30;10.40;99.90
21811;DHT22;11067;48.788;9.208;2023-03-14T00:30:56;10.40;99.90
21811;DHT22;11067;48.788;9.208;2023-03-14T00:33:21;10.40;99.90
21811;DHT22;11067;48.788;9.208;2023-03-14T00:35:58;10.40;99.90
21811;DHT22;11067;48.788;9.208;2023-03-14T00:38:24;10.40;99.90
21811;DHT22;11067;48.788;9.208;2023-03-14T00:40:51;10.50;99.90
21811;DHT22;11067;48.788;9.208;2023-03-14T00:43:18;10.50;99.90
21811;DHT22;11067;48.788;9.208;2023-03-14T00:45:43;10.60;99.90
21811;DHT22;11067;48.788;9.208;2023-03-14T00:48:09;10.60;99.90
21811;DHT22;11067;48.788;9.208;2023-03-14T00:50:35;10.60;99.90
21811;DHT22;11067;48.788;9.208;2023-03-14T00:53:00;10.50;99.90
21811;DHT22;11067;48.788;9.208;2023-03-14T00:55:26;10.50;99.90
21811;DHT22;11067;48.788;9.208;2023-03-14T00:57:51;10.50;99.90
21811;DHT22;11067;48.788;9.208;2023-03-14T01:00:17;10.60;99.90
21811;DHT22;11067;48.788;9.208;2023-03-14T01:02:43;10.50;99.90
21811;DHT22;11067;48.788;9.208;2023-03-14T01:05:08;10.50;99.90
21811;DHT22;11067;48.788;9.208;2023-03-14T01:07:36;10.60;99.90
21811;DHT22;11067;48.788;9.208;2023-03-14T01:10:03;10.60;99.90
21811;DHT22;11067;48.788;9.208;2023-03-14T01:12:29;10.60;99.90
21811;DHT22;11067;48.788;9.208;2023-03-14T01:14:54;10.60;99.90
21811;DHT22;11067;48.788;9.208;2023-03-14T01:17:20;10.60;99.90
21811;DHT22;11067;48.788;9.208;2023-03-14T01:19:46;10.70;99.90
21811;DHT22;11067;48.788;9.208;2023-03-14T01:22:12;10.70;99.90
21811;DHT22;11067;48.788;9.208;2023-03-14T01:24:37;10.70;99.90
21811;DHT22;11067;48.788;9.208;2023-03-14T01:27:03;10.70;99.90
21811;DHT22;11067;48.788;9.208;2023-03-14T01:29:29;10.70;99.90
21811;DHT22;11067;48.788;9.208;2023-03-14T01:31:54;10.60;99.90
21811;DHT22;11067;48.788;9.208;2023-03-14T01:34:20;10.60;99.90
21811;DHT22;11067;48.788;9.208;2023-03-14T01:36:45;10.60;99.90
21811;DHT22;11067;48.788;9.208;2023-03-14T01:39:11;10.60;99.90
21811;DHT22;11067;48.788;9.208;2023-03-14T01:41:38;10.60;99.90
21811;DHT22;11067;48.788;9.208;2023-03-14T01:44:04;10.60;99.90
21811;DHT22;11067;48.788;9.208;2023-03-14T01:46:44;10.50;99.90
21811;DHT22;11067;48.788;9.208;2023-03-14T01:49:30;10.60;99.90
21811;DHT22;11067;48.788;9.208;2023-03-14T01:54:36;10.60;99.90
21811;DHT22;11067;48.788;9.208;2023-03-14T01:57:11;10.70;99.90
21811;DHT22;11067;48.788;9.208;2023-03-14T01:59:40;10.60;99.90
21811;DHT22;11067;48.788;9.208;2023-03-14T02:02:09;10.70;99.90
21811;DHT22;11067;48.788;9.208;2023-03-14T02:04:37;10.70;99.90
21811;DHT22;11067;48.788;9.208;2023-03-14T02:07:19;10.70;99.90
21811;DHT22;11067;48.788;9.208;2023-03-14T02:09:46;10.70;99.90
21811;DHT22;11067;48.788;9.208;2023-03-14T02:12:15;10.70;99.90
21811;DHT22;11067;48.788;9.208;2023-03-14T02:14:41;10.80;99.90
21811;DHT22;11067;48.788;9.208;2023-03-14T02:17:13;10.80;99.90
21811;DHT22;11067;48.788;9.208;2023-03-14T02:22:24;10.70;99.90
21811;DHT22;11067;48.788;9.208;2023-03-14T02:24:58;10.60;99.90
21811;DHT22;11067;48.788;9.208;2023-03-14T02:27:26;10.60;99.90
21811;DHT22;11067;48.788;9.208;2023-03-14T02:29:56;10.60;99.90
21811;DHT22;11067;48.788;9.208;2023-03-14T02:32:24;10.60;99.90
21811;DHT22;11067;48.788;9.208;2023-03-14T02:34:54;10.60;99.90
21811;DHT22;11067;48.788;9.208;2023-03-14T02:37:22;10.60;99.90
21811;DHT22;11067;48.788;9.208;2023-03-14T02:39:48;10.60;99.90
21811;DHT22;11067;48.788;9.208;2023-03-14T02:42:17;10.50;99.90
21811;DHT22;11067;48.788;9.208;2023-03-14T02:47:34;10.50;99.90
21811;DHT22;11067;48.788;9.208;2023-03-14T02:50:08;10.50;99.90
21811;DHT22;11067;48.788;9.208;2023-03-14T02:52:34;10.50;99.90
21811;DHT22;11067;48.788;9.208;2023-03-14T02:55:00;10.50;99.90
21811;DHT22;11067;48.788;9.208;2023-03-14T02:57:25;10.50;99.90
21811;DHT22;11067;48.788;9.208;2023-03-14T02:59:51;10.50;99.90
21811;DHT22;11067;48.788;9.208;2023-03-14T03:02:17;10.50;99.90
21811;DHT22;11067;48.788;9.208;2023-03-14T03:04:42;10.50;99.90
21811;DHT22;11067;48.788;9.208;2023-03-14T03:07:08;10.50;99.90
21811;DHT22;11067;48.788;9.208;2023-03-14T03:09:34;10.50;99.90
21811;DHT22;11067;48.788;9.208;2023-03-14T03:11:59;10.50;99.90
21811;DHT22;11067;48.788;9.208;2023-03-14T03:14:25;10.50;99.90
21811;DHT22;11067;48.788;9.208;2023-03-14T03:16:50;10.50;99.90
21811;DHT22;11067;48.788;9.208;2023-03-14T03:19:16;10.50;99.90
21811;DHT22;11067;48.788;9.208;2023-03-14T03:21:43;10.50;99.90
21811;DHT22;11067;48.788;9.208;2023-03-14T03:24:09;10.50;99.90
21811;DHT22;11067;48.788;9.208;2023-03-14T03:26:35;10.50;99.90
21811;DHT22;11067;48.788;9.208;2023-03-14T03:29:00;10.50;99.90
21811;DHT22;11067;48.788;9.208;2023-03-14T03:31:26;10.50;99.90
21811;DHT22;11067;48.788;9.208;2023-03-14T03:33:52;10.40;99.90
21811;DHT22;11067;48.788;9.208;2023-03-14T03:36:24;10.40;99.90
21811;DHT22;11067;48.788;9.208;2023-03-14T03:38:50;10.40;99.90
21811;DHT22;11067;48.788;9.208;2023-03-14T03:41:16;10.40;99.90
21811;DHT22;11067;48.788;9.208;2023-03-14T03:43:41;10.40;99.90
21811;DHT22;11067;48.788;9.208;2023-03-14T03:46:07;10.40;99.90
21811;DHT22;11067;48.788;9.208;2023-03-14T03:48:34;10.40;99.90
21811;DHT22;11067;48.788;9.208;2023-03-14T03:51:00;10.40;99.90
21811;DHT22;11067;48.788;9.208;2023-03-14T03:53:25;10.40;99.90
21811;DHT22;11067;48.788;9.208;2023-03-14T03:55:51;10.40;99.90
21811;DHT22;11067;48.788;9.208;2023-03-14T03:58:17;10.40;99.90
21811;DHT22;11067;48.788;9.208;2023-03-14T04:00:42;10.40;99.90
21811;DHT22;11067;48.788;9.208;2023-03-14T04:03:08;10.40;99.90
21811;DHT22;11067;48.788;9.208;2023-03-14T04:05:34;10.30;99.90
21811;DHT22;11067;48.788;9.208;2023-03-14T04:08:00;10.30;99.90
21811;DHT22;11067;48.788;9.208;2023-03-14T04:10:26;10.30;99.90
21811;DHT22;11067;48.788;9.208;2023-03-14T04:12:51;10.30;99.90
21811;DHT22;11067;48.788;9.208;2023-03-14T04:15:17;10.20;99.90
21811;DHT22;11067;48.788;9.208;2023-03-14T04:17:43;10.30;99.90
21811;DHT22;11067;48.788;9.208;2023-03-14T04:20:09;10.30;99.90
21811;DHT22;11067;48.788;9.208;2023-03-14T04:22:36;10.20;99.90
21811;DHT22;11067;48.788;9.208;2023-03-14T04:25:02;10.20;99.90
21811;DHT22;11067;48.788;9.208;2023-03-14T04:27:29;10.20;99.90
21811;DHT22;11067;48.788;9.208;2023-03-14T04:29:54;10.20;99.90
21811;DHT22;11067;48.788;9.208;2023-03-14T04:32:20;10.20;99.90
21811;DHT22;11067;48.788;9.208;2023-03-14T04:34:45;10.20;99.90
21811;DHT22;11067;48.788;9.208;2023-03-14T04:37:11;10.20;99.90
21811;DHT22;11067;48.788;9.208;2023-03-14T04:39:37;10.20;99.90
21811;DHT22;11067;48.788;9.208;2023-03-14T04:42:02;10.20;99.90
21811;DHT22;11067;48.788;9.208;2023-03-14T04:44:28;10.20;99.90
21811;DHT22;11067;48.788;9.208;2023-03-14T04:46:53;10.20;99.90
21811;DHT22;11067;48.788;9.208;2023-03-14T04:49:19;10.20;99.90
21811;DHT22;11067;48.788;9.208;2023-03-14T04:51:45;10.10;99.90
21811;DHT22;11067;48.788;9.208;2023-03-14T04:54:11;10.10;99.90
21811;DHT22;11067;48.788;9.208;2023-03-14T04:56:36;10.10;99.90
21811;DHT22;11067;48.788;9.208;2023-03-14T04:59:02;10.10;99.90
21811;DHT22;11067;48.788;9.208;2023-03-14T05:01:28;10.00;99.90
21811;DHT22;11067;48.788;9.208;2023-03-14T05:03:54;10.00;99.90
21811;DHT22;11067;48.788;9.208;2023-03-14T05:06:19;9.90;99.90
21811;DHT22;11067;48.788;9.208;2023-03-14T05:08:45;9.90;99.90
21811;DHT22;11067;48.788;9.208;2023-03-14T05:11:11;9.70;99.90
21811;DHT22;11067;48.788;9.208;2023-03-14T05:13:37;9.80;99.90
21811;DHT22;11067;48.788;9.208;2023-03-14T05:16:05;9.80;99.90
21811;DHT22;11067;48.788;9.208;2023-03-14T05:18:31;9.70;99.90
21811;DHT22;11067;48.788;9.208;2023-03-14T05:20:56;9.70;99.90
21811;DHT22;11067;48.788;9.208;2023-03-14T05:23:22;9.60;99.90
21811;DHT22;11067;48.788;9.208;2023-03-14T05:25:47;9.60;99.90
21811;DHT22;11067;48.788;9.208;2023-03-14T05:28:13;9.50;99.90
21811;DHT22;11067;48.788;9.208;2023-03-14T05:30:38;9.50;99.90
21811;DHT22;11067;48.788;9.208;2023-03-14T05:33:04;9.50;99.90
21811;DHT22;11067;48.788;9.208;2023-03-14T05:35:29;9.40;99.90
21811;DHT22;11067;48.788;9.208;2023-03-14T05:37:55;9.40;99.90
21811;DHT22;11067;48.788;9.208;2023-03-14T05:40:20;9.50;99.90
21811;DHT22;11067;48.788;9.208;2023-03-14T05:42:46;9.60;99.90
21811;DHT22;11067;48.788;9.208;2023-03-14T05:45:12;9.50;99.90
21811;DHT22;11067;48.788;9.208;2023-03-14T05:47:37;9.50;99.90
21811;DHT22;11067;48.788;9.208;2023-03-14T05:50:03;9.50;99.90
21811;DHT22;11067;48.788;9.208;2023-03-14T05:52:28;9.50;99.90
21811;DHT22;11067;48.788;9.208;2023-03-14T05:54:55;9.50;99.90
21811;DHT22;11067;48.788;9.208;2023-03-14T05:57:20;9.50;99.90
21811;DHT22;11067;48.788;9.208;2023-03-14T05:59:46;9.60;99.90
21811;DHT22;11067;48.788;9.208;2023-03-14T06:02:11;9.60;99.90
21811;DHT22;11067;48.788;9.208;2023-03-14T06:04:37;9.60;99.90
21811;DHT22;11067;48.788;9.208;2023-03-14T06:07:02;9.70;99.90
21811;DHT22;11067;48.788;9.208;2023-03-14T06:09:28;9.70;99.90
21811;DHT22;11067;48.788;9.208;2023-03-14T06:11:54;9.70;99.90
21811;DHT22;11067;48.788;9.208;2023-03-14T06:14:19;9.80;99.90
21811;DHT22;11067;48.788;9.208;2023-03-14T06:16:45;9.70;99.90
21811;DHT22;11067;48.788;9.208;2023-03-14T06:19:10;9.80;99.90
21811;DHT22;11067;48.788;9.208;2023-03-14T06:21:37;9.80;99.90
21811;DHT22;11067;48.788;9.208;2023-03-14T06:24:02;9.90;99.90
21811;DHT22;11067;48.788;9.208;2023-03-14T06:26:29;9.90;99.90
21811;DHT22;11067;48.788;9.208;2023-03-14T06:28:54;9.90;99.90
21811;DHT22;11067;48.788;9.208;2023-03-14T06:31:20;9.80;99.90
21811;DHT22;11067;48.788;9.208;2023-03-14T06:33:46;9.90;99.90
21811;DHT22;11067;48.788;9.208;2023-03-14T06:36:11;10.00;99.90
21811;DHT22;11067;48.788;9.208;2023-03-14T06:38:37;10.00;99.90
21811;DHT22;11067;48.788;9.208;2023-03-14T06:41:03;10.00;99.90
21811;DHT22;11067;48.788;9.208;2023-03-14T06:43:30;10.10;99.90
21811;DHT22;11067;48.788;9.208;2023-03-14T06:45:55;10.10;99.90
21811;DHT22;11067;48.788;9.208;2023-03-14T06:48:21;10.20;99.90
21811;DHT22;11067;48.788;9.208;2023-03-14T06:50:48;10.30;99.90
21811;DHT22;11067;48.788;9.208;2023-03-14T06:53:14;10.20;99.90
21811;DHT22;11067;48.788;9.208;2023-03-14T06:55:39;10.30;99.90
21811;DHT22;11067;48.788;9.208;2023-03-14T06:58:05;10.30;99.90
21811;DHT22;11067;48.788;9.208;2023-03-14T07:00:33;10.30;99.90
21811;DHT22;11067;48.788;9.208;2023-03-14T07:02:59;10.50;99.90
21811;DHT22;11067;48.788;9.208;2023-03-14T07:05:25;10.60;99.90
21811;DHT22;11067;48.788;9.208;2023-03-14T07:07:50;10.80;99.90
21811;DHT22;11067;48.788;9.208;2023-03-14T07:10:16;10.90;99.90
21811;DHT22;11067;48.788;9.208;2023-03-14T07:12:42;11.00;99.90
21811;DHT22;11067;48.788;9.208;2023-03-14T07:15:08;11.20;99.90
21811;DHT22;11067;48.788;9.208;2023-03-14T07:17:33;11.10;99.90
21811;DHT22;11067;48.788;9.208;2023-03-14T07:19:59;11.20;99.90
21811;DHT22;11067;48.788;9.208;2023-03-14T07:22:25;11.40;99.90
21811;DHT22;11067;48.788;9.208;2023-03-14T07:24:50;11.50;99.90
21811;DHT22;11067;48.788;9.208;2023-03-14T07:27:16;11.70;99.90
21811;DHT22;11067;48.788;9.208;2023-03-14T07:29:41;11.80;99.90
21811;DHT22;11067;48.788;9.208;2023-03-14T07:32:07;11.90;99.90
21811;DHT22;11067;48.788;9.208;2023-03-14T07:34:33;11.90;99.90
21811;DHT22;11067;48.788;9.208;2023-03-14T07:36:59;12.10;99.90
21811;DHT22;11067;48.788;9.208;2023-03-14T07:39:24;12.20;99.90
21811;DHT22;11067;48.788;9.208;2023-03-14T07:41:50;12.20;99.90
21811;DHT22;11067;48.788;9.208;2023-03-14T07:44:16;12.30;99.90
21811;DHT22;11067;48.788;9.208;2023-03-14T07:46:42;12.20;99.90
21811;DHT22;11067;48.788;9.208;2023-03-14T07:49:07;12.10;99.90
21811;DHT22;11067;48.788;9.208;2023-03-14T07:51:33;12.30;99.90
21811;DHT22;11067;48.788;9.208;2023-03-14T07:53:58;12.30;99.90
21811;DHT22;11067;48.788;9.208;2023-03-14T07:56:24;12.20;99.90
21811;DHT22;11067;48.788;9.208;2023-03-14T07:58:50;12.30;99.90
21811;DHT22;11067;48.788;9.208;2023-03-14T08:01:15;12.40;99.90
21811;DHT22;11067;48.788;9.208;2023-03-14T08:03:41;12.30;99.90
21811;DHT22;11067;48.788;9.208;2023-03-14T08:06:06;12.40;99.90
21811;DHT22;11067;48.788;9.208;2023-03-14T08:08:32;12.40;99.90
21811;DHT22;11067;48.788;9.208;2023-03-14T08:11:03;12.40;99.90
21811;DHT22;11067;48.788;9.208;2023-03-14T08:13:29;12.60;99.90
21811;DHT22;11067;48.788;9.208;2023-03-14T08:15:55;12.80;99.90
21811;DHT22;11067;48.788;9.208;2023-03-14T08:18:21;12.90;99.90
21811;DHT22;11067;48.788;9.208;2023-03-14T08:20:46;12.90;99.90
21811;DHT22;11067;48.788;9.208;2023-03-14T08:23:12;12.90;99.90
21811;DHT22;11067;48.788;9.208;2023-03-14T08:25:38;13.00;99.90
21811;DHT22;11067;48.788;9.208;2023-03-14T08:28:03;13.20;99.90
21811;DHT22;11067;48.788;9.208;2023-03-14T08:30:29;13.00;99.90
21811;DHT22;11067;48.788;9.208;2023-03-14T08:32:57;13.00;99.90
21811;DHT22;11067;48.788;9.208;2023-03-14T08:35:24;13.20;99.90
21811;DHT22;11067;48.788;9.208;2023-03-14T08:37:49;13.40;99.90
21811;DHT22;11067;48.788;9.208;2023-03-14T08:40:15;13.60;99.90
21811;DHT22;11067;48.788;9.208;2023-03-14T08:42:42;13.60;99.90
21811;DHT22;11067;48.788;9.208;2023-03-14T08:45:10;13.70;99.90
21811;DHT22;11067;48.788;9.208;2023-03-14T08:47:35;13.90;99.90
21811;DHT22;11067;48.788;9.208;2023-03-14T08:50:02;13.90;99.90
21811;DHT22;11067;48.788;9.208;2023-03-14T08:52:29;14.20;99.90
21811;DHT22;11067;48.788;9.208;2023-03-14T08:54:56;13.80;99.90
21811;DHT22;11067;48.788;9.208;2023-03-14T08:57:21;13.90;99.90
21811;DHT22;11067;48.788;9.208;2023-03-14T08:59:47;13.80;99.90
21811;DHT22;11067;48.788;9.208;2023-03-14T09:02:13;13.80;99.90
21811;DHT22;11067;48.788;9.208;2023-03-14T09:04:41;14.00;99.90
21811;DHT22;11067;48.788;9.208;2023-03-14T09:07:06;14.10;99.90
21811;DHT22;11067;48.788;9.208;2023-03-14T09:09:32;13.90;99.90
21811;DHT22;11067;48.788;9.208;2023-03-14T09:12:00;13.80;99.90
21811;DHT22;11067;48.788;9.208;2023-03-14T09:14:26;13.80;99.90
21811;DHT22;11067;48.788;9.208;2023-03-14T09:16:52;14.10;99.90
21811;DHT22;11067;48.788;9.208;2023-03-14T09:19:17;14.00;99.90
21811;DHT22;11067;48.788;9.208;2023-03-14T09:21:45;13.60;99.90
21811;DHT22;11067;48.788;9.208;2023-03-14T09:24:11;13.60;99.90
21811;DHT22;11067;48.788;9.208;2023-03-14T09:26:36;13.60;99.90
21811;DHT22;11067;48.788;9.208;2023-03-14T09:29:03;13.50;99.90
21811;DHT22;11067;48.788;9.208;2023-03-14T09:31:28;13.70;99.90
21811;DHT22;11067;48.788;9.208;2023-03-14T09:33:55;13.90;99.90
21811;DHT22;11067;48.788;9.208;2023-03-14T09:36:20;14.00;99.90
21811;DHT22;11067;48.788;9.208;2023-03-14T09:38:46;14.10;99.90
21811;DHT22;11067;48.788;9.208;2023-03-14T09:41:27;14.10;99.90
21811;DHT22;11067;48.788;9.208;2023-03-14T09:44:14;14.30;99.90
21811;DHT22;11067;48.788;9.208;2023-03-14T09:46:43;13.70;99.90
21811;DHT22;11067;48.788;9.208;2023-03-14T09:49:25;14.00;99.90
21811;DHT22;11067;48.788;9.208;2023-03-14T09:51:55;14.10;99.90
21811;DHT22;11067;48.788;9.208;2023-03-14T09:54:39;14.10;99.90
21811;DHT22;11067;48.788;9.208;2023-03-14T09:57:14;14.20;99.90
21811;DHT22;11067;48.788;9.208;2023-03-14T09:59:45;14.10;99.90
21811;DHT22;11067;48.788;9.208;2023-03-14T10:02:15;13.70;99.90
21811;DHT22;11067;48.788;9.208;2023-03-14T10:04:42;13.50;99.90
21811;DHT22;11067;48.788;9.208;2023-03-14T10:07:18;13.70;99.90
21811;DHT22;11067;48.788;9.208;2023-03-14T10:09:49;13.70;99.90
21811;DHT22;11067;48.788;9.208;2023-03-14T10:12:16;13.60;99.90
21811;DHT22;11067;48.788;9.208;2023-03-14T10:14:50;13.70;99.90
21811;DHT22;11067;48.788;9.208;2023-03-14T10:17:18;13.60;99.90
21811;DHT22;11067;48.788;9.208;2023-03-14T10:19:57;13.60;99.90
21811;DHT22;11067;48.788;9.208;2023-03-14T10:22:27;13.90;99.90
21811;DHT22;11067;48.788;9.208;2023-03-14T10:25:01;13.90;99.90
21811;DHT22;11067;48.788;9.208;2023-03-14T10:27:32;14.00;99.90
21811;DHT22;11067;48.788;9.208;2023-03-14T10:30:04;14.30;99.90
21811;DHT22;11067;48.788;9.208;2023-03-14T10:32:34;14.30;99.90
21811;DHT22;11067;48.788;9.208;2023-03-14T10:37:58;14.10;99.90
21811;DHT22;11067;48.788;9.208;2023-03-14T10:40:33;14.10;99.90
21811;DHT22;11067;48.788;9.208;2023-03-14T10:43:00;14.00;99.90
21811;DHT22;11067;48.788;9.208;2023-03-14T10:45:39;14.00;99.90
21811;DHT22;11067;48.788;9.208;2023-03-14T10:48:32;14.10;99.90
21811;DHT22;11067;48.788;9.208;2023-03-14T10:51:07;14.20;99.90
21811;DHT22;11067;48.788;9.208;2023-03-14T10:53:41;14.30;99.90
21811;DHT22;11067;48.788;9.208;2023-03-14T10:56:15;13.90;99.90
21811;DHT22;11067;48.788;9.208;2023-03-14T10:58:43;13.70;99.90
21811;DHT22;11067;48.788;9.208;2023-03-14T11:03:36;13.70;99.90
21811;DHT22;11067;48.788;9.208;2023-03-14T11:06:28;13.80;99.90
21811;DHT22;11067;48.788;9.208;2023-03-14T11:15:24;13.30;99.90
21811;DHT22;11067;48.788;9.208;2023-03-14T11:23:21;13.40;99.90
21811;DHT22;11067;48.788;9.208;2023-03-14T11:25:56;13.50;99.90
21811;DHT22;11067;48.788;9.208;2023-03-14T11:28:29;13.20;99.90
21811;DHT22;11067;48.788;9.208;2023-03-14T11:34:01;12.40;99.90
21811;DHT22;11067;48.788;9.208;2023-03-14T11:36:31;12.40;99.90
21811;DHT22;11067;48.788;9.208;2023-03-14T11:38:59;12.30;99.90
21811;DHT22;11067;48.788;9.208;2023-03-14T11:41:30;12.20;99.90
21811;DHT22;11067;48.788;9.208;2023-03-14T11:44:02;12.00;99.90
21811;DHT22;11067;48.788;9.208;2023-03-14T11:46:38;12.00;99.90
21811;DHT22;11067;48.788;9.208;2023-03-14T11:51:56;12.50;99.90
21811;DHT22;11067;48.788;9.208;2023-03-14T11:57:19;12.30;99.90
21811;DHT22;11067;48.788;9.208;2023-03-14T12:02:43;12.10;99.90
21811;DHT22;11067;48.788;9.208;2023-03-14T12:10:42;12.00;99.90
21811;DHT22;11067;48.788;9.208;2023-03-14T12:13:10;12.30;99.90
21811;DHT22;11067;48.788;9.208;2023-03-14T12:15:46;12.60;99.90
21811;DHT22;11067;48.788;9.208;2023-03-14T12:18:27;12.60;99.90
21811;DHT22;11067;48.788;9.208;2023-03-14T12:21:01;12.40;99.90
21811;DHT22;11067;48.788;9.208;2023-03-14T12:23:35;12.40;99.90
21811;DHT22;11067;48.788;9.208;2023-03-14T12:28:37;12.00;99.90
21811;DHT22;11067;48.788;9.208;2023-03-14T12:42:11;12.10;99.90
21811;DHT22;11067;48.788;9.208;2023-03-14T12:44:50;11.90;99.90
21811;DHT22;11067;48.788;9.208;2023-03-14T12:50:14;12.10;99.90
21811;DHT22;11067;48.788;9.208;2023-03-14T12:58:13;11.70;99.90
21811;DHT22;11067;48.788;9.208;2023-03-14T13:00:41;11.30;99.90
21811;DHT22;11067;48.788;9.208;2023-03-14T13:03:20;11.40;99.90
21811;DHT22;11067;48.788;9.208;2023-03-14T13:05:58;11.50;99.90
21811;DHT22;11067;48.788;9.208;2023-03-14T13:08:53;11.50;99.90
21811;DHT22;11067;48.788;9.208;2023-03-14T13:11:23;11.40;99.90
21811;DHT22;11067;48.788;9.208;2023-03-14T13:13:58;11.50;99.90
21811;DHT22;11067;48.788;9.208;2023-03-14T13:16:24;11.30;99.90
21811;DHT22;11067;48.788;9.208;2023-03-14T13:19:02;11.30;99.90
21811;DHT22;11067;48.788;9.208;2023-03-14T13:21:34;11.20;99.90
21811;DHT22;11067;48.788;9.208;2023-03-14T13:24:22;11.20;99.90
21811;DHT22;11067;48.788;9.208;2023-03-14T13:26:49;11.10;99.90
21811;DHT22;11067;48.788;9.208;2023-03-14T13:29:24;11.10;99.90
21811;DHT22;11067;48.788;9.208;2023-03-14T13:31:52;11.00;99.90
21811;DHT22;11067;48.788;9.208;2023-03-14T13:34:19;10.70;99.90
21811;DHT22;11067;48.788;9.208;2023-03-14T13:36:45;10.80;99.90
21811;DHT22;11067;48.788;9.208;2023-03-14T13:39:13;10.70;99.90
21811;DHT22;11067;48.788;9.208;2023-03-14T13:41:42;10.50;99.90
21811;DHT22;11067;48.788;9.208;2023-03-14T13:44:15;10.60;99.90
21811;DHT22;11067;48.788;9.208;2023-03-14T13:46:41;10.60;99.90
21811;DHT22;11067;48.788;9.208;2023-03-14T13:49:13;10.70;99.90
21811;DHT22;11067;48.788;9.208;2023-03-14T13:51:43;11.10;99.90
21811;DHT22;11067;48.788;9.208;2023-03-14T13:54:17;11.10;99.90
21811;DHT22;11067;48.788;9.208;2023-03-14T13:56:43;11.00;99.90
21811;DHT22;11067;48.788;9.208;2023-03-14T13:59:30;10.90;99.90
21811;DHT22;11067;48.788;9.208;2023-03-14T14:01:57;10.70;99.90
21811;DHT22;11067;48.788;9.208;2023-03-14T14:04:25;10.70;99.90
21811;DHT22;11067;48.788;9.208;2023-03-14T14:06:59;10.40;99.90
21811;DHT22;11067;48.788;9.208;2023-03-14T14:09:27;10.60;99.90
21811;DHT22;11067;48.788;9.208;2023-03-14T14:12:02;10.30;99.90
21811;DHT22;11067;48.788;9.208;2023-03-14T14:14:42;10.40;99.90
21811;DHT22;11067;48.788;9.208;2023-03-14T14:17:12;10.60;99.90
21811;DHT22;11067;48.788;9.208;2023-03-14T14:19:39;10.50;99.90
21811;DHT22;11067;48.788;9.208;2023-03-14T14:22:05;10.60;99.90
21811;DHT22;11067;48.788;9.208;2023-03-14T14:24:34;10.40;99.90
21811;DHT22;11067;48.788;9.208;2023-03-14T14:27:08;10.30;99.90
21811;DHT22;11067;48.788;9.208;2023-03-14T14:29:34;10.30;99.90
21811;DHT22;11067;48.788;9.208;2023-03-14T14:34:27;10.30;99.90
21811;DHT22;11067;48.788;9.208;2023-03-14T14:36:53;10.20;99.90
21811;DHT22;11067;48.788;9.208;2023-03-14T14:39:21;10.10;99.90
21811;DHT22;11067;48.788;9.208;2023-03-14T14:41:49;10.20;99.90
21811;DHT22;11067;48.788;9.208;2023-03-14T14:44:21;10.10;99.90
21811;DHT22;11067;48.788;9.208;2023-03-14T14:46:50;10.10;99.90
21811;DHT22;11067;48.788;9.208;2023-03-14T14:49:19;10.20;99.90
21811;DHT22;11067;48.788;9.208;2023-03-14T14:51:49;10.10;99.90
21811;DHT22;11067;48.788;9.208;2023-03-14T14:54:17;10.20;99.90
21811;DHT22;11067;48.788;9.208;2023-03-14T14:56:53;10.20;99.90
21811;DHT22;11067;48.788;9.208;2023-03-14T14:59:27;10.20;99.90
21811;DHT22;11067;48.788;9.208;2023-03-14T15:02:25;10.10;99.90
21811;DHT22;11067;48.788;9.208;2023-03-14T15:04:52;10.20;99.90
21811;DHT22;11067;48.788;9.208;2023-03-14T15:07:18;10.20;99.90
21811;DHT22;11067;48.788;9.208;2023-03-14T15:09:43;10.20;99.90
21811;DHT22;11067;48.788;9.208;2023-03-14T15:12:09;10.30;99.90
21811;DHT22;11067;48.788;9.208;2023-03-14T15:14:34;10.20;99.90
21811;DHT22;11067;48.788;9.208;2023-03-14T15:17:00;10.40;99.90
21811;DHT22;11067;48.788;9.208;2023-03-14T15:19:26;10.10;99.90
21811;DHT22;11067;48.788;9.208;2023-03-14T15:21:54;10.10;99.90
21811;DHT22;11067;48.788;9.208;2023-03-14T15:24:20;10.30;99.90
21811;DHT22;11067;48.788;9.208;2023-03-14T15:26:46;10.40;99.90
21811;DHT22;11067;48.788;9.208;2023-03-14T15:29:12;10.80;99.90
21811;DHT22;11067;48.788;9.208;2023-03-14T15:31:39;10.60;99.90
21811;DHT22;11067;48.788;9.208;2023-03-14T15:34:05;10.50;99.90
21811;DHT22;11067;48.788;9.208;2023-03-14T15:36:32;10.40;99.90
21811;DHT22;11067;48.788;9.208;2023-03-14T15:38:59;10.30;99.90
21811;DHT22;11067;48.788;9.208;2023-03-14T15:41:25;10.40;99.90
21811;DHT22;11067;48.788;9.208;2023-03-14T15:43:51;10.40;99.90
21811;DHT22;11067;48.788;9.208;2023-03-14T15:46:17;10.40;99.90
21811;DHT22;11067;48.788;9.208;2023-03-14T15:48:44;10.30;99.90
21811;DHT22;11067;48.788;9.208;2023-03-14T15:51:10;10.50;99.90
21811;DHT22;11067;48.788;9.208;2023-03-14T15:53:35;10.50;99.90
21811;DHT22;11067;48.788;9.208;2023-03-14T15:56:06;10.50;99.90
21811;DHT22;11067;48.788;9.208;2023-03-14T15:58:32;10.60;99.90
21811;DHT22;11067;48.788;9.208;2023-03-14T16:01:01;10.60;99.90
21811;DHT22;11067;48.788;9.208;2023-03-14T16:03:30;10.50;99.90
21811;DHT22;11067;48.788;9.208;2023-03-14T16:05:55;10.50;99.90
21811;DHT22;11067;48.788;9.208;2023-03-14T16:08:23;10.40;99.90
21811;DHT22;11067;48.788;9.208;2023-03-14T16:10:48;10.40;99.90
21811;DHT22;11067;48.788;9.208;2023-03-14T16:13:14;10.40;99.90
21811;DHT22;11067;48.788;9.208;2023-03-14T16:15:40;10.30;99.90
21811;DHT22;11067;48.788;9.208;2023-03-14T16:18:06;10.20;99.90
21811;DHT22;11067;48.788;9.208;2023-03-14T16:20:31;10.10;99.90
21811;DHT22;11067;48.788;9.208;2023-03-14T16:22:57;10.00;99.90
21811;DHT22;11067;48.788;9.208;2023-03-14T16:25:23;10.00;99.90
21811;DHT22;11067;48.788;9.208;2023-03-14T16:27:48;9.90;99.90
21811;DHT22;11067;48.788;9.208;2023-03-14T16:30:14;9.90;99.90
21811;DHT22;11067;48.788;9.208;2023-03-14T16:32:39;9.90;99.90
21811;DHT22;11067;48.788;9.208;2023-03-14T16:35:06;9.90;99.90
21811;DHT22;11067;48.788;9.208;2023-03-14T16:37:32;9.80;99.90
21811;DHT22;11067;48.788;9.208;2023-03-14T16:39:57;9.90;99.90
21811;DHT22;11067;48.788;9.208;2023-03-14T16:42:23;9.80;99.90
21811;DHT22;11067;48.788;9.208;2023-03-14T16:44:49;9.70;99.90